sensor_id;sensor_type;location;lat;lon;timestamp;P1;durP1;ratioP1;P2;durP2;ratioP2
22111;SDS011;11222;50.872;4.312;2023-05-07T00:01:37;9.07;;;6.15;;
22111;SDS011;11222;50.872;4.312;2023-05-07T00:04:04;13.77;;;5.72;;
22111;SDS011;11222;50.872;4.312;2023-05-07T00:06:30;10.85;;;5.88;;
22111;SDS011;11222;50.872;4.312;2023-05-07T00:08:56;11.13;;;6.10;;
22111;SDS011;11222;50.872;4.312;2023-05-07T00:11:22;9.32;;;5.47;;
22111;SDS011;11222;50.872;4.312;2023-05-07T00:13:48;8.90;;;5.70;;
22111;SDS011;11222;50.872;4.312;2023-05-07T00:16:14;10.85;;;5.50;;
22111;SDS011;11222;50.872;4.312;2023-05-07T00:18:39;9.80;;;5.68;;
22111;SDS011;11222;50.872;4.312;2023-05-07T00:21:05;9.07;;;6.25;;
22111;SDS011;11222;50.872;4.312;2023-05-07T00:23:31;12.55;;;5.60;;
22111;SDS011;11222;50.872;4.312;2023-05-07T00:25:56;10.00;;;5.75;;
22111;SDS011;11222;50.872;4.312;2023-05-07T00:28:22;10.73;;;5.40;;
22111;SDS011;11222;50.872;4.312;2023-05-07T00:30:48;9.23;;;5.05;;
22111;SDS011;11222;50.872;4.312;2023-05-07T00:33:13;9.05;;;5.55;;
22111;SDS011;11222;50.872;4.312;2023-05-07T00:35:39;10.35;;;4.95;;
22111;SDS011;11222;50.872;4.312;2023-05-07T00:38:05;9.60;;;4.95;;
22111;SDS011;11222;50.872;4.312;2023-05-07T00:40:30;7.40;;;4.80;;
22111;SDS011;11222;50.872;4.312;2023-05-07T00:42:56;9.43;;;4.82;;
22111;SDS011;11222;50.872;4.312;2023-05-07T00:45:23;9.18;;;5.32;;
22111;SDS011;11222;50.872;4.312;2023-05-07T00:47:55;9.68;;;5.30;;
22111;SDS011;11222;50.872;4.312;2023-05-07T00:50:26;8.88;;;5.07;;
22111;SDS011;11222;50.872;4.312;2023-05-07T00:52:52;10.13;;;5.38;;
22111;SDS011;11222;50.872;4.312;2023-05-07T00:55:19;8.65;;;5.13;;
22111;SDS011;11222;50.872;4.312;2023-05-07T00:57:45;9.18;;;5.10;;
22111;SDS011;11222;50.872;4.312;2023-05-07T01:00:11;10.27;;;4.95;;
22111;SDS011;11222;50.872;4.312;2023-05-07T01:02:38;8.57;;;5.10;;
22111;SDS011;11222;50.872;4.312;2023-05-07T01:05:04;10.15;;;5.72;;
22111;SDS011;11222;50.872;4.312;2023-05-07T01:07:32;10.43;;;5.50;;
22111;SDS011;11222;50.872;4.312;2023-05-07T01:09:59;9.68;;;5.35;;
22111;SDS011;11222;50.872;4.312;2023-05-07T01:12:26;10.13;;;5.20;;
22111;SDS011;11222;50.872;4.312;2023-05-07T01:14:53;11.20;;;5.13;;
22111;SDS011;11222;50.872;4.312;2023-05-07T01:17:19;10.30;;;5.57;;
22111;SDS011;11222;50.872;4.312;2023-05-07T01:19:45;7.85;;;4.80;;
22111;SDS011;11222;50.872;4.312;2023-05-07T01:22:12;9.88;;;6.00;;
22111;SDS011;11222;50.872;4.312;2023-05-07T01:24:41;8.50;;;4.70;;
22111;SDS011;11222;50.872;4.312;2023-05-07T01:27:08;8.95;;;5.35;;
22111;SDS011;11222;50.872;4.312;2023-05-07T01:29:33;8.50;;;5.53;;
22111;SDS011;11222;50.872;4.312;2023-05-07T01:32:00;8.80;;;5.60;;
22111;SDS011;11222;50.872;4.312;2023-05-07T01:34:30;11.20;;;5.68;;
22111;SDS011;11222;50.872;4.312;2023-05-07T01:36:58;9.68;;;5.07;;
22111;SDS011;11222;50.872;4.312;2023-05-07T01:39:24;6.88;;;4.70;;
22111;SDS011;11222;50.872;4.312;2023-05-07T01:41:52;8.60;;;4.85;;
22111;SDS011;11222;50.872;4.312;2023-05-07T01:44:21;11.25;;;5.45;;
22111;SDS011;11222;50.872;4.312;2023-05-07T01:46:47;9.90;;;5.70;;
22111;SDS011;11222;50.872;4.312;2023-05-07T01:49:14;10.45;;;5.53;;
22111;SDS011;11222;50.872;4.312;2023-05-07T01:51:40;14.73;;;7.80;;
22111;SDS011;11222;50.872;4.312;2023-05-07T01:54:06;10.95;;;5.90;;
22111;SDS011;11222;50.872;4.312;2023-05-07T01:56:33;9.63;;;5.38;;
22111;SDS011;11222;50.872;4.312;2023-05-07T01:58:59;10.15;;;5.60;;
22111;SDS011;11222;50.872;4.312;2023-05-07T02:01:25;11.43;;;6.68;;
22111;SDS011;11222;50.872;4.312;2023-05-07T02:03:51;11.55;;;5.95;;
22111;SDS011;11222;50.872;4.312;2023-05-07T02:06:16;7.45;;;5.75;;
22111;SDS011;11222;50.872;4.312;2023-05-07T02:08:42;13.60;;;8.73;;
22111;SDS011;11222;50.872;4.312;2023-05-07T02:11:08;12.30;;;6.28;;
22111;SDS011;11222;50.872;4.312;2023-05-07T02:13:34;13.00;;;10.07;;
22111;SDS011;11222;50.872;4.312;2023-05-07T02:16:00;16.98;;;10.30;;
22111;SDS011;11222;50.872;4.312;2023-05-07T02:18:25;15.23;;;12.38;;
22111;SDS011;11222;50.872;4.312;2023-05-07T02:20:51;11.18;;;6.95;;
22111;SDS011;11222;50.872;4.312;2023-05-07T02:23:17;15.05;;;12.10;;
22111;SDS011;11222;50.872;4.312;2023-05-07T02:25:43;25.75;;;22.35;;
22111;SDS011;11222;50.872;4.312;2023-05-07T02:28:08;16.25;;;9.27;;
22111;SDS011;11222;50.872;4.312;2023-05-07T02:30:34;11.85;;;6.82;;
22111;SDS011;11222;50.872;4.312;2023-05-07T02:33:00;10.77;;;5.80;;
22111;SDS011;11222;50.872;4.312;2023-05-07T02:35:26;10.57;;;6.72;;
22111;SDS011;11222;50.872;4.312;2023-05-07T02:37:51;16.67;;;9.77;;
22111;SDS011;11222;50.872;4.312;2023-05-07T02:40:17;11.07;;;6.85;;
22111;SDS011;11222;50.872;4.312;2023-05-07T02:42:43;9.55;;;6.68;;
22111;SDS011;11222;50.872;4.312;2023-05-07T02:45:09;10.93;;;6.10;;
22111;SDS011;11222;50.872;4.312;2023-05-07T02:47:35;25.63;;;22.92;;
22111;SDS011;11222;50.872;4.312;2023-05-07T02:50:00;10.02;;;8.10;;
22111;SDS011;11222;50.872;4.312;2023-05-07T02:52:26;10.52;;;7.07;;
22111;SDS011;11222;50.872;4.312;2023-05-07T02:54:52;13.90;;;10.75;;
22111;SDS011;11222;50.872;4.312;2023-05-07T02:57:17;13.85;;;7.63;;
22111;SDS011;11222;50.872;4.312;2023-05-07T02:59:43;10.45;;;7.85;;
22111;SDS011;11222;50.872;4.312;2023-05-07T03:02:09;10.68;;;8.02;;
22111;SDS011;11222;50.872;4.312;2023-05-07T03:04:35;16.50;;;10.60;;
22111;SDS011;11222;50.872;4.312;2023-05-07T03:07:01;24.25;;;13.02;;
22111;SDS011;11222;50.872;4.312;2023-05-07T03:09:26;14.88;;;10.38;;
22111;SDS011;11222;50.872;4.312;2023-05-07T03:11:52;22.30;;;16.23;;
22111;SDS011;11222;50.872;4.312;2023-05-07T03:14:18;21.30;;;14.98;;
22111;SDS011;11222;50.872;4.312;2023-05-07T03:16:43;20.23;;;10.98;;
22111;SDS011;11222;50.872;4.312;2023-05-07T03:19:09;16.52;;;9.80;;
22111;SDS011;11222;50.872;4.312;2023-05-07T03:21:34;13.55;;;7.05;;
22111;SDS011;11222;50.872;4.312;2023-05-07T03:24:00;14.80;;;11.18;;
22111;SDS011;11222;50.872;4.312;2023-05-07T03:26:26;14.90;;;12.10;;
22111;SDS011;11222;50.872;4.312;2023-05-07T03:28:51;11.85;;;9.27;;
22111;SDS011;11222;50.872;4.312;2023-05-07T03:31:17;10.80;;;6.95;;
22111;SDS011;11222;50.872;4.312;2023-05-07T03:33:53;11.00;;;6.90;;
22111;SDS011;11222;50.872;4.312;2023-05-07T03:36:21;12.00;;;7.95;;
22111;SDS011;11222;50.872;4.312;2023-05-07T03:38:48;12.88;;;8.40;;
22111;SDS011;11222;50.872;4.312;2023-05-07T03:41:14;9.88;;;7.53;;
22111;SDS011;11222;50.872;4.312;2023-05-07T03:43:39;13.98;;;8.93;;
22111;SDS011;11222;50.872;4.312;2023-05-07T03:46:05;11.15;;;8.65;;
22111;SDS011;11222;50.872;4.312;2023-05-07T03:48:31;14.10;;;9.98;;
22111;SDS011;11222;50.872;4.312;2023-05-07T03:50:57;15.10;;;7.88;;
22111;SDS011;11222;50.872;4.312;2023-05-07T03:53:23;13.73;;;8.68;;
22111;SDS011;11222;50.872;4.312;2023-05-07T03:55:49;13.02;;;8.63;;
22111;SDS011;11222;50.872;4.312;2023-05-07T03:58:15;13.85;;;8.65;;
22111;SDS011;11222;50.872;4.312;2023-05-07T04:00:40;13.45;;;9.18;;
22111;SDS011;11222;50.872;4.312;2023-05-07T04:03:06;11.20;;;8.65;;
22111;SDS011;11222;50.872;4.312;2023-05-07T04:05:32;13.40;;;10.18;;
22111;SDS011;11222;50.872;4.312;2023-05-07T04:07:58;19.42;;;13.15;;
22111;SDS011;11222;50.872;4.312;2023-05-07T04:10:24;16.65;;;14.95;;
22111;SDS011;11222;50.872;4.312;2023-05-07T04:12:50;19.60;;;15.15;;
22111;SDS011;11222;50.872;4.312;2023-05-07T04:15:15;18.33;;;13.80;;
22111;SDS011;11222;50.872;4.312;2023-05-07T04:17:41;20.67;;;14.38;;
22111;SDS011;11222;50.872;4.312;2023-05-07T04:20:10;18.40;;;13.48;;
22111;SDS011;11222;50.872;4.312;2023-05-07T04:22:39;17.48;;;11.73;;
22111;SDS011;11222;50.872;4.312;2023-05-07T04:25:05;16.92;;;12.05;;
22111;SDS011;11222;50.872;4.312;2023-05-07T04:27:33;16.80;;;10.60;;
22111;SDS011;11222;50.872;4.312;2023-05-07T04:29:58;12.00;;;8.05;;
22111;SDS011;11222;50.872;4.312;2023-05-07T04:32:25;16.67;;;8.63;;
22111;SDS011;11222;50.872;4.312;2023-05-07T04:34:54;13.82;;;8.00;;
22111;SDS011;11222;50.872;4.312;2023-05-07T04:37:20;12.60;;;7.28;;
22111;SDS011;11222;50.872;4.312;2023-05-07T04:39:46;10.90;;;7.57;;
22111;SDS011;11222;50.872;4.312;2023-05-07T04:42:16;10.63;;;7.15;;
22111;SDS011;11222;50.872;4.312;2023-05-07T04:44:43;12.55;;;6.72;;
22111;SDS011;11222;50.872;4.312;2023-05-07T04:47:10;10.88;;;6.45;;
22111;SDS011;11222;50.872;4.312;2023-05-07T04:49:36;9.57;;;6.55;;
22111;SDS011;11222;50.872;4.312;2023-05-07T04:52:03;15.88;;;7.45;;
22111;SDS011;11222;50.872;4.312;2023-05-07T04:54:29;10.35;;;6.75;;
22111;SDS011;11222;50.872;4.312;2023-05-07T04:56:55;6.82;;;5.88;;
22111;SDS011;11222;50.872;4.312;2023-05-07T04:59:21;10.50;;;7.07;;
22111;SDS011;11222;50.872;4.312;2023-05-07T05:01:46;12.27;;;8.25;;
22111;SDS011;11222;50.872;4.312;2023-05-07T05:04:12;12.63;;;6.75;;
22111;SDS011;11222;50.872;4.312;2023-05-07T05:06:38;13.43;;;8.85;;
22111;SDS011;11222;50.872;4.312;2023-05-07T05:09:04;11.40;;;8.70;;
22111;SDS011;11222;50.872;4.312;2023-05-07T05:11:30;10.52;;;6.63;;
22111;SDS011;11222;50.872;4.312;2023-05-07T05:13:56;12.82;;;6.72;;
22111;SDS011;11222;50.872;4.312;2023-05-07T05:16:22;9.02;;;7.15;;
22111;SDS011;11222;50.872;4.312;2023-05-07T05:18:47;11.27;;;7.40;;
22111;SDS011;11222;50.872;4.312;2023-05-07T05:21:13;9.07;;;6.97;;
22111;SDS011;11222;50.872;4.312;2023-05-07T05:23:39;10.27;;;7.30;;
22111;SDS011;11222;50.872;4.312;2023-05-07T05:26:06;11.00;;;6.88;;
22111;SDS011;11222;50.872;4.312;2023-05-07T05:28:31;13.43;;;7.35;;
22111;SDS011;11222;50.872;4.312;2023-05-07T05:30:57;13.43;;;6.88;;
22111;SDS011;11222;50.872;4.312;2023-05-07T05:33:23;13.32;;;7.47;;
22111;SDS011;11222;50.872;4.312;2023-05-07T05:35:49;9.48;;;7.00;;
22111;SDS011;11222;50.872;4.312;2023-05-07T05:38:15;13.10;;;7.50;;
22111;SDS011;11222;50.872;4.312;2023-05-07T05:40:41;11.43;;;7.78;;
22111;SDS011;11222;50.872;4.312;2023-05-07T05:43:07;14.40;;;7.70;;
22111;SDS011;11222;50.872;4.312;2023-05-07T05:45:32;11.60;;;6.80;;
22111;SDS011;11222;50.872;4.312;2023-05-07T05:47:58;11.50;;;6.90;;
22111;SDS011;11222;50.872;4.312;2023-05-07T05:50:24;11.73;;;7.05;;
22111;SDS011;11222;50.872;4.312;2023-05-07T05:52:50;14.93;;;6.97;;
22111;SDS011;11222;50.872;4.312;2023-05-07T05:55:16;12.10;;;6.82;;
22111;SDS011;11222;50.872;4.312;2023-05-07T05:57:41;9.85;;;6.68;;
22111;SDS011;11222;50.872;4.312;2023-05-07T06:00:08;12.23;;;5.90;;
22111;SDS011;11222;50.872;4.312;2023-05-07T06:02:34;9.25;;;5.70;;
22111;SDS011;11222;50.872;4.312;2023-05-07T06:05:00;12.55;;;5.90;;
22111;SDS011;11222;50.872;4.312;2023-05-07T06:07:25;11.25;;;6.07;;
22111;SDS011;11222;50.872;4.312;2023-05-07T06:09:51;11.35;;;6.20;;
22111;SDS011;11222;50.872;4.312;2023-05-07T06:12:17;8.70;;;5.53;;
22111;SDS011;11222;50.872;4.312;2023-05-07T06:14:43;12.57;;;6.82;;
22111;SDS011;11222;50.872;4.312;2023-05-07T06:17:08;10.48;;;5.68;;
22111;SDS011;11222;50.872;4.312;2023-05-07T06:19:34;12.60;;;6.78;;
22111;SDS011;11222;50.872;4.312;2023-05-07T06:22:00;9.68;;;6.28;;
22111;SDS011;11222;50.872;4.312;2023-05-07T06:24:27;12.75;;;6.25;;
22111;SDS011;11222;50.872;4.312;2023-05-07T06:26:53;14.27;;;6.13;;
22111;SDS011;11222;50.872;4.312;2023-05-07T06:29:19;10.63;;;6.18;;
22111;SDS011;11222;50.872;4.312;2023-05-07T06:31:45;14.38;;;6.38;;
22111;SDS011;11222;50.872;4.312;2023-05-07T06:34:10;13.40;;;6.70;;
22111;SDS011;11222;50.872;4.312;2023-05-07T06:36:39;14.35;;;7.20;;
22111;SDS011;11222;50.872;4.312;2023-05-07T06:39:05;13.13;;;7.00;;
22111;SDS011;11222;50.872;4.312;2023-05-07T06:41:31;15.88;;;7.07;;
22111;SDS011;11222;50.872;4.312;2023-05-07T06:43:57;10.80;;;7.03;;
22111;SDS011;11222;50.872;4.312;2023-05-07T06:46:23;10.07;;;7.20;;
22111;SDS011;11222;50.872;4.312;2023-05-07T06:48:48;12.77;;;7.82;;
22111;SDS011;11222;50.872;4.312;2023-05-07T06:51:14;11.82;;;7.28;;
22111;SDS011;11222;50.872;4.312;2023-05-07T06:53:40;14.23;;;8.38;;
22111;SDS011;11222;50.872;4.312;2023-05-07T06:56:05;12.52;;;7.75;;
22111;SDS011;11222;50.872;4.312;2023-05-07T06:58:31;18.00;;;8.45;;
22111;SDS011;11222;50.872;4.312;2023-05-07T07:00:57;14.93;;;8.00;;
22111;SDS011;11222;50.872;4.312;2023-05-07T07:03:23;12.68;;;7.57;;
22111;SDS011;11222;50.872;4.312;2023-05-07T07:05:51;14.32;;;7.47;;
22111;SDS011;11222;50.872;4.312;2023-05-07T07:08:17;12.52;;;7.30;;
22111;SDS011;11222;50.872;4.312;2023-05-07T07:10:46;12.73;;;6.82;;
22111;SDS011;11222;50.872;4.312;2023-05-07T07:13:12;12.85;;;7.15;;
22111;SDS011;11222;50.872;4.312;2023-05-07T07:15:37;15.25;;;6.82;;
22111;SDS011;11222;50.872;4.312;2023-05-07T07:18:03;14.00;;;6.70;;
22111;SDS011;11222;50.872;4.312;2023-05-07T07:20:29;14.80;;;8.10;;
22111;SDS011;11222;50.872;4.312;2023-05-07T07:22:55;11.07;;;7.00;;
22111;SDS011;11222;50.872;4.312;2023-05-07T07:25:21;11.45;;;7.05;;
22111;SDS011;11222;50.872;4.312;2023-05-07T07:27:46;17.63;;;8.57;;
22111;SDS011;11222;50.872;4.312;2023-05-07T07:30:12;13.98;;;7.55;;
22111;SDS011;11222;50.872;4.312;2023-05-07T07:32:38;16.23;;;8.23;;
22111;SDS011;11222;50.872;4.312;2023-05-07T07:35:04;14.00;;;7.13;;
22111;SDS011;11222;50.872;4.312;2023-05-07T07:37:30;14.50;;;7.57;;
22111;SDS011;11222;50.872;4.312;2023-05-07T07:39:56;10.90;;;6.68;;
22111;SDS011;11222;50.872;4.312;2023-05-07T07:42:21;14.73;;;6.93;;
22111;SDS011;11222;50.872;4.312;2023-05-07T07:44:47;16.38;;;7.10;;
22111;SDS011;11222;50.872;4.312;2023-05-07T07:47:13;12.27;;;7.28;;
22111;SDS011;11222;50.872;4.312;2023-05-07T07:49:39;12.05;;;7.00;;
22111;SDS011;11222;50.872;4.312;2023-05-07T07:52:04;9.98;;;6.07;;
22111;SDS011;11222;50.872;4.312;2023-05-07T07:54:31;10.43;;;7.00;;
22111;SDS011;11222;50.872;4.312;2023-05-07T07:56:57;10.48;;;6.15;;
22111;SDS011;11222;50.872;4.312;2023-05-07T07:59:23;10.27;;;6.60;;
22111;SDS011;11222;50.872;4.312;2023-05-07T08:01:49;9.75;;;6.85;;
22111;SDS011;11222;50.872;4.312;2023-05-07T08:04:17;9.80;;;6.13;;
22111;SDS011;11222;50.872;4.312;2023-05-07T08:06:42;11.60;;;6.07;;
22111;SDS011;11222;50.872;4.312;2023-05-07T08:09:08;9.00;;;6.25;;
22111;SDS011;11222;50.872;4.312;2023-05-07T08:11:34;10.75;;;6.55;;
22111;SDS011;11222;50.872;4.312;2023-05-07T08:14:00;11.95;;;6.45;;
22111;SDS011;11222;50.872;4.312;2023-05-07T08:16:26;9.25;;;6.82;;
22111;SDS011;11222;50.872;4.312;2023-05-07T08:18:52;10.65;;;6.70;;
22111;SDS011;11222;50.872;4.312;2023-05-07T08:21:18;10.48;;;6.55;;
22111;SDS011;11222;50.872;4.312;2023-05-07T08:23:43;13.07;;;6.95;;
22111;SDS011;11222;50.872;4.312;2023-05-07T08:26:09;11.73;;;6.82;;
22111;SDS011;11222;50.872;4.312;2023-05-07T08:28:35;10.95;;;6.70;;
22111;SDS011;11222;50.872;4.312;2023-05-07T08:31:01;13.27;;;5.35;;
22111;SDS011;11222;50.872;4.312;2023-05-07T08:33:27;7.13;;;5.43;;
22111;SDS011;11222;50.872;4.312;2023-05-07T08:35:53;8.57;;;6.03;;
22111;SDS011;11222;50.872;4.312;2023-05-07T08:38:18;8.57;;;6.43;;
22111;SDS011;11222;50.872;4.312;2023-05-07T08:40:45;10.95;;;5.80;;
22111;SDS011;11222;50.872;4.312;2023-05-07T08:43:15;9.82;;;6.00;;
22111;SDS011;11222;50.872;4.312;2023-05-07T08:45:41;9.80;;;6.32;;
22111;SDS011;11222;50.872;4.312;2023-05-07T08:48:19;12.05;;;6.43;;
22111;SDS011;11222;50.872;4.312;2023-05-07T08:50:50;9.18;;;6.63;;
22111;SDS011;11222;50.872;4.312;2023-05-07T08:53:16;10.10;;;6.50;;
22111;SDS011;11222;50.872;4.312;2023-05-07T08:55:42;9.43;;;6.20;;
22111;SDS011;11222;50.872;4.312;2023-05-07T08:58:08;11.35;;;6.75;;
22111;SDS011;11222;50.872;4.312;2023-05-07T09:00:35;11.65;;;7.47;;
22111;SDS011;11222;50.872;4.312;2023-05-07T09:03:02;10.88;;;7.10;;
22111;SDS011;11222;50.872;4.312;2023-05-07T09:05:28;10.15;;;7.07;;
22111;SDS011;11222;50.872;4.312;2023-05-07T09:07:54;10.48;;;7.07;;
22111;SDS011;11222;50.872;4.312;2023-05-07T09:10:20;10.90;;;6.95;;
22111;SDS011;11222;50.872;4.312;2023-05-07T09:12:46;10.82;;;7.22;;
22111;SDS011;11222;50.872;4.312;2023-05-07T09:15:13;10.15;;;7.70;;
22111;SDS011;11222;50.872;4.312;2023-05-07T09:17:39;11.68;;;7.55;;
22111;SDS011;11222;50.872;4.312;2023-05-07T09:20:07;11.52;;;7.78;;
22111;SDS011;11222;50.872;4.312;2023-05-07T09:22:34;12.15;;;7.95;;
22111;SDS011;11222;50.872;4.312;2023-05-07T09:25:02;9.32;;;5.90;;
22111;SDS011;11222;50.872;4.312;2023-05-07T09:27:28;8.25;;;5.68;;
22111;SDS011;11222;50.872;4.312;2023-05-07T09:29:53;9.30;;;5.50;;
22111;SDS011;11222;50.872;4.312;2023-05-07T09:32:19;7.18;;;4.75;;
22111;SDS011;11222;50.872;4.312;2023-05-07T09:34:45;9.57;;;5.78;;
22111;SDS011;11222;50.872;4.312;2023-05-07T09:37:12;7.63;;;4.80;;
22111;SDS011;11222;50.872;4.312;2023-05-07T09:39:46;9.10;;;5.28;;
22111;SDS011;11222;50.872;4.312;2023-05-07T09:42:14;8.88;;;5.55;;
22111;SDS011;11222;50.872;4.312;2023-05-07T09:44:40;7.68;;;5.32;;
22111;SDS011;11222;50.872;4.312;2023-05-07T09:47:08;7.25;;;4.95;;
22111;SDS011;11222;50.872;4.312;2023-05-07T09:49:37;9.65;;;5.70;;
22111;SDS011;11222;50.872;4.312;2023-05-07T09:52:05;12.30;;;5.95;;
22111;SDS011;11222;50.872;4.312;2023-05-07T09:54:33;7.90;;;6.00;;
22111;SDS011;11222;50.872;4.312;2023-05-07T09:57:02;9.85;;;6.97;;
22111;SDS011;11222;50.872;4.312;2023-05-07T09:59:31;9.57;;;6.28;;
22111;SDS011;11222;50.872;4.312;2023-05-07T10:01:58;9.93;;;6.38;;
22111;SDS011;11222;50.872;4.312;2023-05-07T10:04:25;9.05;;;6.30;;
22111;SDS011;11222;50.872;4.312;2023-05-07T10:06:51;9.43;;;6.80;;
22111;SDS011;11222;50.872;4.312;2023-05-07T10:09:18;8.88;;;6.18;;
22111;SDS011;11222;50.872;4.312;2023-05-07T10:11:45;11.23;;;6.38;;
22111;SDS011;11222;50.872;4.312;2023-05-07T10:14:12;10.77;;;6.65;;
22111;SDS011;11222;50.872;4.312;2023-05-07T10:16:39;9.52;;;6.47;;
22111;SDS011;11222;50.872;4.312;2023-05-07T10:19:07;10.18;;;7.38;;
22111;SDS011;11222;50.872;4.312;2023-05-07T10:21:39;12.07;;;7.45;;
22111;SDS011;11222;50.872;4.312;2023-05-07T10:24:10;10.10;;;6.95;;
22111;SDS011;11222;50.872;4.312;2023-05-07T10:26:45;11.18;;;7.10;;
22111;SDS011;11222;50.872;4.312;2023-05-07T10:29:33;13.50;;;7.32;;
22111;SDS011;11222;50.872;4.312;2023-05-07T10:37:25;9.45;;;6.25;;
22111;SDS011;11222;50.872;4.312;2023-05-07T10:39:51;12.07;;;6.45;;
22111;SDS011;11222;50.872;4.312;2023-05-07T10:42:17;9.98;;;6.72;;
22111;SDS011;11222;50.872;4.312;2023-05-07T10:44:43;9.07;;;6.15;;
22111;SDS011;11222;50.872;4.312;2023-05-07T10:47:13;11.25;;;7.00;;
22111;SDS011;11222;50.872;4.312;2023-05-07T10:52:16;7.28;;;5.28;;
22111;SDS011;11222;50.872;4.312;2023-05-07T10:54:44;7.80;;;5.72;;
22111;SDS011;11222;50.872;4.312;2023-05-07T11:00:01;9.20;;;5.63;;
22111;SDS011;11222;50.872;4.312;2023-05-07T11:03:04;8.23;;;5.50;;
22111;SDS011;11222;50.872;4.312;2023-05-07T11:05:30;7.88;;;5.70;;
22111;SDS011;11222;50.872;4.312;2023-05-07T11:08:00;7.57;;;5.68;;
22111;SDS011;11222;50.872;4.312;2023-05-07T11:16:23;7.85;;;6.03;;
22111;SDS011;11222;50.872;4.312;2023-05-07T11:18:53;14.32;;;7.80;;
22111;SDS011;11222;50.872;4.312;2023-05-07T11:21:33;10.52;;;6.90;;
22111;SDS011;11222;50.872;4.312;2023-05-07T11:24:06;9.45;;;7.70;;
22111;SDS011;11222;50.872;4.312;2023-05-07T11:27:06;9.15;;;7.25;;
22111;SDS011;11222;50.872;4.312;2023-05-07T11:29:25;10.23;;;7.85;;
22111;SDS011;11222;50.872;4.312;2023-05-07T11:31:54;10.15;;;7.70;;
22111;SDS011;11222;50.872;4.312;2023-05-07T11:34:21;10.82;;;7.95;;
22111;SDS011;11222;50.872;4.312;2023-05-07T11:36:48;10.00;;;8.35;;
22111;SDS011;11222;50.872;4.312;2023-05-07T11:39:24;10.23;;;8.05;;
22111;SDS011;11222;50.872;4.312;2023-05-07T11:41:58;7.68;;;5.80;;
22111;SDS011;11222;50.872;4.312;2023-05-07T11:44:24;9.43;;;5.50;;
22111;SDS011;11222;50.872;4.312;2023-05-07T11:46:50;8.40;;;5.82;;
22111;SDS011;11222;50.872;4.312;2023-05-07T11:49:16;9.45;;;5.68;;
22111;SDS011;11222;50.872;4.312;2023-05-07T11:51:43;7.72;;;6.13;;
22111;SDS011;11222;50.872;4.312;2023-05-07T11:54:11;8.93;;;6.53;;
22111;SDS011;11222;50.872;4.312;2023-05-07T11:56:40;8.88;;;6.90;;
22111;SDS011;11222;50.872;4.312;2023-05-07T11:59:06;8.25;;;6.82;;
22111;SDS011;11222;50.872;4.312;2023-05-07T12:01:34;10.20;;;8.82;;
22111;SDS011;11222;50.872;4.312;2023-05-07T12:04:02;9.80;;;6.32;;
22111;SDS011;11222;50.872;4.312;2023-05-07T12:06:29;8.25;;;6.15;;
22111;SDS011;11222;50.872;4.312;2023-05-07T12:08:55;9.35;;;5.68;;
22111;SDS011;11222;50.872;4.312;2023-05-07T12:11:25;7.65;;;6.00;;
22111;SDS011;11222;50.872;4.312;2023-05-07T12:13:51;9.50;;;5.55;;
22111;SDS011;11222;50.872;4.312;2023-05-07T12:16:17;9.82;;;5.72;;
22111;SDS011;11222;50.872;4.312;2023-05-07T12:18:44;9.68;;;5.75;;
22111;SDS011;11222;50.872;4.312;2023-05-07T12:21:10;6.35;;;5.40;;
22111;SDS011;11222;50.872;4.312;2023-05-07T12:23:36;7.35;;;5.40;;
22111;SDS011;11222;50.872;4.312;2023-05-07T12:26:03;6.60;;;5.40;;
22111;SDS011;11222;50.872;4.312;2023-05-07T12:28:29;9.32;;;6.15;;
22111;SDS011;11222;50.872;4.312;2023-05-07T12:30:56;5.70;;;5.15;;
22111;SDS011;11222;50.872;4.312;2023-05-07T12:33:25;8.25;;;5.53;;
22111;SDS011;11222;50.872;4.312;2023-05-07T12:35:53;7.80;;;6.10;;
22111;SDS011;11222;50.872;4.312;2023-05-07T12:38:20;7.45;;;5.97;;
22111;SDS011;11222;50.872;4.312;2023-05-07T12:40:47;7.72;;;5.68;;
22111;SDS011;11222;50.872;4.312;2023-05-07T12:45:52;6.50;;;5.53;;
22111;SDS011;11222;50.872;4.312;2023-05-07T12:48:20;6.95;;;5.63;;
22111;SDS011;11222;50.872;4.312;2023-05-07T12:50:50;6.82;;;5.90;;
22111;SDS011;11222;50.872;4.312;2023-05-07T12:53:16;8.73;;;7.38;;
22111;SDS011;11222;50.872;4.312;2023-05-07T12:58:19;8.23;;;6.18;;
22111;SDS011;11222;50.872;4.312;2023-05-07T13:00:45;11.88;;;6.55;;
22111;SDS011;11222;50.872;4.312;2023-05-07T13:03:20;7.80;;;6.40;;
22111;SDS011;11222;50.872;4.312;2023-05-07T13:05:48;7.38;;;6.68;;
22111;SDS011;11222;50.872;4.312;2023-05-07T13:08:23;11.25;;;7.65;;
22111;SDS011;11222;50.872;4.312;2023-05-07T13:10:58;8.60;;;7.70;;
22111;SDS011;11222;50.872;4.312;2023-05-07T13:13:32;11.13;;;8.68;;
22111;SDS011;11222;50.872;4.312;2023-05-07T13:16:00;11.75;;;9.57;;
22111;SDS011;11222;50.872;4.312;2023-05-07T13:18:26;10.18;;;8.82;;
22111;SDS011;11222;50.872;4.312;2023-05-07T13:20:54;10.20;;;9.02;;
22111;SDS011;11222;50.872;4.312;2023-05-07T13:23:20;11.30;;;9.73;;
22111;SDS011;11222;50.872;4.312;2023-05-07T13:25:45;12.65;;;9.50;;
22111;SDS011;11222;50.872;4.312;2023-05-07T13:28:11;11.50;;;9.77;;
22111;SDS011;11222;50.872;4.312;2023-05-07T13:30:37;13.25;;;10.05;;
22111;SDS011;11222;50.872;4.312;2023-05-07T13:33:03;10.98;;;9.88;;
22111;SDS011;11222;50.872;4.312;2023-05-07T13:35:29;10.77;;;9.77;;
22111;SDS011;11222;50.872;4.312;2023-05-07T13:37:55;12.50;;;11.00;;
22111;SDS011;11222;50.872;4.312;2023-05-07T13:40:21;12.50;;;11.00;;
22111;SDS011;11222;50.872;4.312;2023-05-07T13:42:48;12.32;;;11.02;;
22111;SDS011;11222;50.872;4.312;2023-05-07T13:45:14;13.27;;;11.90;;
22111;SDS011;11222;50.872;4.312;2023-05-07T13:47:40;12.38;;;11.18;;
22111;SDS011;11222;50.872;4.312;2023-05-07T13:50:07;13.02;;;11.73;;
22111;SDS011;11222;50.872;4.312;2023-05-07T13:52:40;12.77;;;11.18;;
22111;SDS011;11222;50.872;4.312;2023-05-07T13:55:08;13.43;;;12.05;;
22111;SDS011;11222;50.872;4.312;2023-05-07T13:57:35;14.10;;;12.15;;
22111;SDS011;11222;50.872;4.312;2023-05-07T14:00:01;14.18;;;12.25;;
22111;SDS011;11222;50.872;4.312;2023-05-07T14:02:33;12.85;;;11.55;;
22111;SDS011;11222;50.872;4.312;2023-05-07T14:04:58;12.73;;;11.48;;
22111;SDS011;11222;50.872;4.312;2023-05-07T14:07:24;13.52;;;12.10;;
22111;SDS011;11222;50.872;4.312;2023-05-07T14:09:50;16.10;;;12.95;;
22111;SDS011;11222;50.872;4.312;2023-05-07T14:12:16;14.25;;;12.93;;
22111;SDS011;11222;50.872;4.312;2023-05-07T14:14:41;14.65;;;12.75;;
22111;SDS011;11222;50.872;4.312;2023-05-07T14:17:07;14.20;;;12.02;;
22111;SDS011;11222;50.872;4.312;2023-05-07T14:19:33;16.25;;;13.75;;
22111;SDS011;11222;50.872;4.312;2023-05-07T14:21:59;13.20;;;11.77;;
22111;SDS011;11222;50.872;4.312;2023-05-07T14:24:24;13.43;;;12.02;;
22111;SDS011;11222;50.872;4.312;2023-05-07T14:26:50;16.40;;;13.60;;
22111;SDS011;11222;50.872;4.312;2023-05-07T14:29:16;15.73;;;12.32;;
22111;SDS011;11222;50.872;4.312;2023-05-07T14:31:44;16.48;;;12.90;;
22111;SDS011;11222;50.872;4.312;2023-05-07T14:34:10;15.60;;;13.85;;
22111;SDS011;11222;50.872;4.312;2023-05-07T14:36:36;14.38;;;12.63;;
22111;SDS011;11222;50.872;4.312;2023-05-07T14:39:02;12.88;;;11.57;;
22111;SDS011;11222;50.872;4.312;2023-05-07T14:41:28;15.07;;;12.60;;
22111;SDS011;11222;50.872;4.312;2023-05-07T14:43:54;19.63;;;13.20;;
22111;SDS011;11222;50.872;4.312;2023-05-07T14:46:20;18.75;;;14.68;;
22111;SDS011;11222;50.872;4.312;2023-05-07T14:48:46;15.60;;;13.60;;
22111;SDS011;11222;50.872;4.312;2023-05-07T14:51:12;15.48;;;13.55;;
22111;SDS011;11222;50.872;4.312;2023-05-07T14:53:40;14.50;;;13.05;;
22111;SDS011;11222;50.872;4.312;2023-05-07T14:56:06;15.05;;;12.63;;